createdAt,value
2017-07-24T00:04:22.565Z,71.00
2017-07-24T00:09:25.760Z,70.20
2017-07-24T00:14:29.824Z,70.50
2017-07-24T00:19:33.025Z,70.40
2017-07-24T00:24:36.209Z,71.10
2017-07-24T00:29:39.383Z,69.20
2017-07-24T00:34:42.584Z,70.40
2017-07-24T00:39:45.780Z,71.80
2017-07-24T00:44:49.061Z,73.00
2017-07-24T00:49:52.254Z,68.70
2017-07-24T00:54:55.426Z,69.50
2017-07-24T00:59:59.386Z,73.50
2017-07-24T01:05:02.601Z,73.50
2017-07-24T01:10:05.793Z,71.10
2017-07-24T01:15:09.025Z,69.60
2017-07-24T01:20:12.211Z,71.90
2017-07-24T01:25:15.402Z,76.60
2017-07-24T01:30:18.610Z,77.80
2017-07-24T01:35:21.814Z,79.30
2017-07-24T01:40:25.741Z,70.90
2017-07-24T01:45:28.957Z,70.80
2017-07-24T01:50:32.114Z,68.60
2017-07-24T01:55:35.295Z,67.60
2017-07-24T02:00:38.468Z,67.70
2017-07-24T02:05:41.633Z,67.60
2017-07-24T02:10:44.809Z,68.10
2017-07-24T02:15:47.966Z,69.90
2017-07-24T02:20:51.901Z,71.00
2017-07-24T02:25:55.849Z,72.80
2017-07-24T02:30:59.034Z,72.80
2017-07-24T02:36:02.989Z,78.60
2017-07-24T02:41:06.206Z,78.50
2017-07-24T02:46:09.382Z,79.80
2017-07-24T02:51:12.579Z,80.70
2017-07-24T02:56:16.509Z,82.50
2017-07-24T03:01:19.712Z,82.50
2017-07-24T03:06:23.649Z,83.60
2017-07-24T03:11:26.839Z,83.50
2017-07-24T03:16:30.789Z,84.90
2017-07-24T03:21:33.974Z,85.10
2017-07-24T03:26:37.152Z,85.20
2017-07-24T03:31:40.319Z,86.60
2017-07-24T03:36:43.501Z,89.30
2017-07-24T03:41:46.677Z,91.00
2017-07-24T03:46:49.845Z,93.70
2017-07-24T03:51:53.046Z,93.40
2017-07-24T03:56:56.233Z,91.10
2017-07-24T04:01:59.408Z,90.90
2017-07-24T04:07:02.613Z,93.80
2017-07-24T04:12:06.577Z,96.30
2017-07-24T04:17:09.775Z,96.30
2017-07-24T04:22:12.973Z,95.10
2017-07-24T04:27:16.153Z,94.30
2017-07-24T04:32:19.326Z,95.40
2017-07-24T04:37:22.591Z,95.60
2017-07-24T04:42:25.801Z,95.00
2017-07-24T04:47:29.093Z,96.50
2017-07-24T04:52:32.274Z,97.20
2017-07-24T04:57:35.497Z,98.10
2017-07-24T05:02:38.729Z,99.20
2017-07-24T05:07:42.650Z,99.90
2017-07-24T05:12:46.613Z,99.90
2017-07-24T05:17:49.795Z,99.90
2017-07-24T05:22:52.986Z,99.90
2017-07-24T05:27:56.927Z,99.90
2017-07-24T05:33:00.110Z,99.90
2017-07-24T05:38:04.033Z,99.90
2017-07-24T05:43:07.989Z,99.90
2017-07-24T05:48:11.216Z,99.90
2017-07-24T05:53:14.376Z,99.90
2017-07-24T05:58:18.320Z,99.90
2017-07-24T06:03:21.526Z,99.90
2017-07-24T06:08:24.705Z,99.90
2017-07-24T06:13:28.666Z,99.90
2017-07-24T06:18:32.008Z,99.90
2017-07-24T06:23:35.182Z,99.90
2017-07-24T06:28:38.403Z,99.90
2017-07-24T06:33:41.565Z,99.90
2017-07-24T06:38:45.501Z,99.90
2017-07-24T06:43:48.689Z,99.90
2017-07-24T06:48:51.885Z,99.90
2017-07-24T06:53:55.066Z,99.90
2017-07-24T06:58:58.477Z,99.90
2017-07-24T07:04:01.788Z,99.90
2017-07-24T07:09:04.945Z,99.90
2017-07-24T07:14:08.142Z,99.90
2017-07-24T07:19:12.068Z,99.90
2017-07-24T07:24:16.022Z,99.90
2017-07-24T07:29:19.178Z,99.90
2017-07-24T07:34:22.380Z,99.90
2017-07-24T07:39:25.558Z,99.90
2017-07-24T07:44:28.750Z,99.90
2017-07-24T07:49:31.933Z,99.80
2017-07-24T07:54:35.110Z,99.90
2017-07-24T07:59:38.298Z,99.90
2017-07-24T08:04:41.760Z,99.30
2017-07-24T08:09:45.686Z,98.60
2017-07-24T08:14:48.865Z,98.70
2017-07-24T08:19:52.037Z,97.80
2017-07-24T08:24:55.211Z,97.30
2017-07-24T08:29:58.405Z,96.60
2017-07-24T08:35:02.385Z,96.10
2017-07-24T08:40:05.561Z,95.90
2017-07-24T08:45:08.762Z,96.80
2017-07-24T08:50:11.970Z,95.60
2017-07-24T08:55:15.158Z,94.60
2017-07-24T09:00:19.117Z,91.80
2017-07-24T09:05:22.336Z,91.80
2017-07-24T09:10:25.533Z,87.80
2017-07-24T09:15:28.721Z,88.70
2017-07-24T09:20:31.901Z,80.20
2017-07-24T09:25:35.853Z,78.20
2017-07-24T09:30:39.049Z,78.30
2017-07-24T09:35:42.315Z,82.20
2017-07-24T09:40:45.523Z,81.50
2017-07-24T09:45:48.730Z,78.10
2017-07-24T09:50:51.948Z,79.00
2017-07-24T09:55:55.117Z,77.10
2017-07-24T10:00:58.329Z,78.30
2017-07-24T10:06:01.524Z,75.40
2017-07-24T10:11:04.711Z,72.60
2017-07-24T10:16:07.891Z,71.70
2017-07-24T10:21:16.350Z,71.60
2017-07-24T10:26:21.596Z,71.30
2017-07-24T10:31:25.538Z,69.50
2017-07-24T10:36:28.748Z,69.50
2017-07-24T10:41:31.974Z,69.60
2017-07-24T10:46:35.172Z,69.70
2017-07-24T10:51:38.362Z,68.70
2017-07-24T10:56:41.539Z,64.40
2017-07-24T11:01:45.482Z,64.60
2017-07-24T11:06:48.705Z,63.90
2017-07-24T11:11:51.919Z,65.50
2017-07-24T11:16:55.099Z,65.10
2017-07-24T11:21:58.302Z,62.90
2017-07-24T11:27:02.237Z,60.30
2017-07-24T11:32:05.416Z,60.20
2017-07-24T11:37:09.447Z,58.40
2017-07-24T11:42:13.402Z,60.10
2017-07-24T11:47:16.610Z,59.90
2017-07-24T11:52:19.786Z,60.90
2017-07-24T11:57:23.731Z,59.50
2017-07-24T12:02:26.921Z,59.30
2017-07-24T12:07:30.877Z,60.60
2017-07-24T12:12:34.062Z,60.50
2017-07-24T12:17:38.016Z,60.30
2017-07-24T12:22:41.267Z,60.20
2017-07-24T12:27:44.502Z,63.60
2017-07-24T12:32:47.721Z,63.70
2017-07-24T12:37:50.905Z,62.30
2017-07-24T12:42:54.879Z,57.80
2017-07-24T12:47:58.086Z,57.10
2017-07-24T12:53:01.285Z,57.60
2017-07-24T12:58:04.481Z,57.80
2017-07-24T13:03:07.686Z,60.80
2017-07-24T13:08:10.865Z,62.70
2017-07-24T13:13:14.833Z,65.00
2017-07-24T13:18:18.021Z,64.90
2017-07-24T13:23:21.221Z,63.60
2017-07-24T13:28:24.390Z,59.20
2017-07-24T13:33:27.561Z,58.00
2017-07-24T13:38:30.745Z,56.80
2017-07-24T13:43:33.950Z,57.80
2017-07-24T13:48:37.148Z,58.70
2017-07-24T13:53:41.084Z,60.30
2017-07-24T13:58:44.266Z,60.40
2017-07-24T14:03:48.221Z,60.60
2017-07-24T14:08:51.409Z,60.60
2017-07-24T14:13:55.353Z,58.70
2017-07-24T14:18:58.559Z,58.70
2017-07-24T14:24:01.786Z,56.60
2017-07-24T14:29:04.980Z,57.20
2017-07-24T14:34:08.151Z,56.80
2017-07-24T14:39:12.121Z,60.00
2017-07-24T14:44:15.316Z,60.00
2017-07-24T14:49:18.547Z,61.80
2017-07-24T14:54:21.733Z,77.40
2017-07-24T14:59:25.051Z,79.20
2017-07-24T15:04:28.233Z,78.70
2017-07-24T15:09:31.405Z,80.20
2017-07-24T15:14:34.595Z,79.20
2017-07-24T15:19:38.104Z,79.70
2017-07-24T15:24:41.290Z,80.00
2017-07-24T15:29:45.096Z,81.30
2017-07-24T15:34:48.285Z,80.40
2017-07-24T15:39:52.233Z,74.40
2017-07-24T15:44:55.352Z,74.40
2017-07-24T15:49:58.574Z,75.90
2017-07-24T15:55:01.836Z,76.50
2017-07-24T16:00:06.017Z,77.90
2017-07-24T16:05:09.221Z,83.20
2017-07-24T16:10:12.411Z,87.50
2017-07-24T16:15:15.633Z,90.40
2017-07-24T16:20:18.889Z,88.30
2017-07-24T16:25:22.087Z,86.20
2017-07-24T16:30:26.037Z,90.20
2017-07-24T16:35:29.245Z,90.00
2017-07-24T16:40:32.444Z,87.90
2017-07-24T16:45:35.651Z,84.90
2017-07-24T16:50:38.829Z,83.00
2017-07-24T16:55:42.791Z,79.50
2017-07-24T17:00:45.950Z,79.50
2017-07-24T17:05:49.330Z,78.30
2017-07-24T17:10:52.637Z,79.80
2017-07-24T17:15:56.592Z,79.70
2017-07-24T17:20:59.836Z,78.90
2017-07-24T17:26:02.998Z,76.20
2017-07-24T17:31:06.155Z,77.90
2017-07-24T17:36:09.326Z,77.80
2017-07-24T17:41:12.476Z,79.70
2017-07-24T17:46:15.654Z,79.00
2017-07-24T17:51:19.602Z,80.70
2017-07-24T17:56:22.759Z,81.40
2017-07-24T18:01:25.956Z,77.60
2017-07-24T18:06:29.120Z,78.60
2017-07-24T18:11:32.314Z,79.30
2017-07-24T18:16:35.463Z,78.50
2017-07-24T18:21:38.612Z,79.80
2017-07-24T18:26:42.634Z,80.30
2017-07-24T18:31:46.605Z,80.90
2017-07-24T18:36:49.829Z,81.00
2017-07-24T18:41:53.107Z,79.60
2017-07-24T18:46:56.340Z,77.90
2017-07-24T18:51:59.534Z,79.70
2017-07-24T18:57:02.737Z,81.80
2017-07-24T19:02:05.947Z,82.00
2017-07-24T19:07:09.160Z,82.40
2017-07-24T19:12:12.378Z,80.80
2017-07-24T19:17:15.589Z,80.70
2017-07-24T19:22:18.908Z,79.90
2017-07-24T19:27:22.128Z,81.30
2017-07-24T19:32:25.306Z,81.90
2017-07-24T19:37:28.677Z,81.60
2017-07-24T19:42:32.644Z,83.00
2017-07-24T19:47:35.861Z,83.00
2017-07-24T19:52:39.062Z,83.80
2017-07-24T19:57:42.251Z,84.20
2017-07-24T20:02:45.441Z,84.00
2017-07-24T20:07:48.662Z,84.00
2017-07-24T20:12:51.890Z,84.50
2017-07-24T20:17:55.117Z,83.70
2017-07-24T20:22:58.326Z,84.70
2017-07-24T20:28:01.542Z,84.50
2017-07-24T20:33:05.504Z,84.20
2017-07-24T20:38:08.841Z,84.20
2017-07-24T20:43:12.102Z,84.00
2017-07-24T20:48:15.294Z,83.00
2017-07-24T20:53:19.262Z,83.80
2017-07-24T20:58:22.464Z,83.20
2017-07-24T21:03:25.712Z,83.20
2017-07-24T21:08:28.977Z,83.50
2017-07-24T21:13:32.175Z,84.00
2017-07-24T21:18:35.370Z,84.80
2017-07-24T21:23:39.324Z,86.10
2017-07-24T21:28:42.519Z,86.70
2017-07-24T21:33:45.713Z,86.90
2017-07-24T21:38:49.645Z,86.50
2017-07-24T21:43:52.826Z,86.40
2017-07-24T21:48:56.793Z,86.90
2017-07-24T21:53:59.977Z,86.90
2017-07-24T21:59:03.150Z,86.70
2017-07-24T22:04:06.352Z,87.00
2017-07-24T22:09:09.550Z,87.80
2017-07-24T22:14:12.729Z,86.90
2017-07-24T22:19:15.937Z,87.50
2017-07-24T22:24:19.184Z,87.40
2017-07-24T22:29:22.385Z,86.40
2017-07-24T22:34:25.578Z,85.80
2017-07-24T22:39:28.816Z,87.00
2017-07-24T22:44:32.773Z,87.50
2017-07-24T22:49:36.061Z,87.40
2017-07-24T22:54:40.094Z,85.90
2017-07-24T22:59:44.062Z,84.90
2017-07-24T23:04:47.254Z,84.80
2017-07-24T23:09:50.464Z,84.90
2017-07-24T23:14:53.671Z,84.60
2017-07-24T23:19:56.923Z,83.80
2017-07-24T23:25:00.109Z,83.50
2017-07-24T23:30:03.347Z,83.90
2017-07-24T23:35:07.313Z,85.40
2017-07-24T23:40:10.559Z,85.30
2017-07-24T23:45:13.736Z,85.10
2017-07-24T23:50:16.872Z,86.00
2017-07-24T23:55:20.051Z,85.70
